Time;durP1;ratioP1;P1;durP2;ratioP2;P2;SDS_P1;SDS_P2;PMS_P1;PMS_P2;Temp;Humidity;BMP_temperature;BMP_pressure;BME280_temperature;BME280_humidity;BME280_pressure;Samples;Min_cycle;Max_cycle;Signal;HPM_P1;HPM_P2
2024/01/08 00:00:40;;;;;;;20.40;12.90;;;;;;;-7.50;65.59;100224.45;106147;1256;61411;-71
2024/01/08 00:03:07;;;;;;;25.20;14.10;;;;;;;-7.48;65.67;100229.40;106189;1262;64069;-70
2024/01/08 00:05:38;;;;;;;22.20;13.00;;;;;;;-7.49;65.52;100229.41;106136;1250;61208;-71
2024/01/08 00:08:08;;;;;;;25.20;14.00;;;;;;;-7.53;65.44;100222.94;105984;1251;61430;-72
2024/01/08 00:10:37;;;;;;;25.50;13.40;;;;;;;-7.55;65.50;100222.27;106015;1251;65820;-71
2024/01/08 00:13:05;;;;;;;23.10;13.40;;;;;;;-7.54;65.58;100225.00;106113;1255;61215;-71
2024/01/08 00:15:32;;;;;;;24.10;13.80;;;;;;;-7.52;65.61;100227.55;106091;1251;64015;-71
2024/01/08 00:17:59;;;;;;;22.80;13.30;;;;;;;-7.51;65.58;100229.61;106103;1251;61225;-72
2024/01/08 00:20:26;;;;;;;24.70;14.10;;;;;;;-7.53;65.58;100228.25;106073;1253;61347;-71
2024/01/08 00:22:53;;;;;;;26.10;15.10;;;;;;;-7.55;65.43;100229.79;106152;1251;64449;-73
2024/01/08 00:25:23;;;;;;;28.00;14.60;;;;;;;-7.60;65.32;100228.64;106159;1254;61260;-71
2024/01/08 00:27:50;;;;;;;26.40;15.50;;;;;;;-7.65;65.22;100227.31;106160;1254;62824;-72
2024/01/08 00:30:17;;;;;;;27.10;14.70;;;;;;;-7.69;65.24;100229.06;106215;1249;61335;-72
2024/01/08 00:32:46;;;;;;;27.00;15.00;;;;;;;-7.69;65.40;100231.62;106124;1251;61256;-70
2024/01/08 00:35:14;;;;;;;26.30;14.90;;;;;;;-7.68;65.51;100231.27;106059;1253;65885;-71
2024/01/08 00:37:41;;;;;;;27.60;15.70;;;;;;;-7.71;65.43;100232.66;106158;1253;61364;-71
2024/01/08 00:40:11;;;;;;;26.60;15.80;;;;;;;-7.78;65.25;100237.33;105895;1250;63878;-69
2024/01/08 00:42:39;;;;;;;27.80;15.00;;;;;;;-7.81;65.27;100235.13;105972;1253;61353;-72
2024/01/08 00:45:07;;;;;;;28.90;15.10;;;;;;;-7.85;65.22;100236.52;106081;1250;61263;-72
2024/01/08 01:01:32;;;;;;;27.00;15.30;;;;;;;-7.93;65.61;100227.52;106217;1250;61240;-71
2024/01/08 01:03:59;;;;;;;25.50;14.40;;;;;;;-7.95;65.58;100232.66;106131;1253;64823;-70
2024/01/08 01:06:26;;;;;;;28.50;16.20;;;;;;;-7.94;65.63;100232.13;106059;1251;61336;-71
2024/01/08 01:08:53;;;;;;;29.90;16.10;;;;;;;-7.92;65.67;100227.49;106109;1251;62427;-72
2024/01/08 01:11:20;;;;;;;27.40;16.40;;;;;;;-7.93;65.66;100228.19;106121;1250;61244;-72
2024/01/08 01:13:47;;;;;;;26.70;15.20;;;;;;;-7.95;65.64;100225.99;106210;1250;61407;-72
2024/01/08 01:16:14;;;;;;;29.60;16.00;;;;;;;-7.95;65.56;100225.14;106177;1251;66028;-71
2024/01/08 01:18:41;;;;;;;26.30;16.10;;;;;;;-7.96;65.53;100227.38;106085;1249;61251;-71
2024/01/08 01:21:10;;;;;;;27.20;16.70;;;;;;;-7.99;65.41;100228.44;106179;1251;64168;-70
2024/01/08 01:23:37;;;;;;;27.60;15.80;;;;;;;-8.02;65.40;100233.04;106157;1250;61232;-71
2024/01/08 01:26:05;;;;;;;28.20;15.70;;;;;;;-8.07;65.22;100238.89;106376;1253;61151;-72
2024/01/08 01:28:32;;;;;;;30.00;15.30;;;;;;;-8.11;65.18;100239.92;106237;1250;65815;-72
2024/01/08 01:31:03;;;;;;;29.90;15.50;;;;;;;-8.13;65.20;100233.95;106211;1250;61321;-72
2024/01/08 01:33:30;;;;;;;31.20;16.20;;;;;;;-8.15;65.15;100236.54;106160;1250;63998;-71
2024/01/08 01:35:57;;;;;;;28.30;15.60;;;;;;;-8.21;65.00;100239.98;106131;1253;61224;-71
2024/01/08 01:38:25;;;;;;;29.10;16.50;;;;;;;-8.24;65.04;100239.83;106166;1250;61275;-71
2024/01/08 01:40:52;;;;;;;28.40;15.60;;;;;;;-8.24;65.11;100242.22;105989;1256;65820;-72
2024/01/08 01:43:24;;;;;;;28.60;15.40;;;;;;;-8.28;65.03;100240.72;106184;1249;61219;-72
2024/01/08 01:45:56;;;;;;;29.90;16.70;;;;;;;-8.33;65.08;100244.31;106251;1253;64502;-71
2024/01/08 01:48:23;;;;;;;30.00;16.60;;;;;;;-8.35;65.06;100246.05;106003;1253;63152;-72
2024/01/08 01:50:50;;;;;;;28.10;16.10;;;;;;;-8.37;65.04;100245.41;106222;1251;61359;-71
2024/01/08 01:53:17;;;;;;;28.60;15.60;;;;;;;-8.37;65.09;100251.05;105891;1251;224941;-71
2024/01/08 01:55:44;;;;;;;29.30;16.10;;;;;;;-8.36;65.27;100246.27;106163;1253;61300;-72
2024/01/08 01:58:11;;;;;;;28.30;15.90;;;;;;;-8.35;65.27;100247.27;106085;1251;62654;-71
2024/01/08 02:00:38;;;;;;;29.50;16.10;;;;;;;-8.35;65.18;100252.56;106045;1249;61310;-70
2024/01/08 02:03:06;;;;;;;26.50;15.50;;;;;;;-8.35;65.18;100248.46;106108;1251;61437;-71
2024/01/08 02:05:33;;;;;;;26.60;14.60;;;;;;;-8.37;65.15;100245.74;106223;1250;65732;-71
2024/01/08 02:08:00;;;;;;;27.90;15.50;;;;;;;-8.41;65.08;100243.02;106335;1254;61266;-71
2024/01/08 02:10:27;;;;;;;25.60;15.10;;;;;;;-8.46;65.04;100244.59;106089;1255;62627;-70
2024/01/08 02:12:54;;;;;;;31.80;16.40;;;;;;;-8.51;65.06;100244.61;106083;1250;61241;-70
2024/01/08 02:15:21;;;;;;;26.60;14.70;;;;;;;-8.58;65.01;100245.31;105933;1251;61264;-70
2024/01/08 02:17:48;;;;;;;26.50;14.80;;;;;;;-8.60;65.10;100241.73;106127;1251;66234;-71
2024/01/08 02:20:15;;;;;;;28.50;14.80;;;;;;;-8.61;65.18;100242.25;106173;1253;61285;-72
2024/01/08 02:22:42;;;;;;;27.10;15.20;;;;;;;-8.60;65.14;100238.50;106110;1251;63821;-71
2024/01/08 02:25:09;;;;;;;28.30;15.60;;;;;;;-8.63;65.09;100238.34;105924;1254;61318;-70
2024/01/08 02:27:35;;;;;;;29.20;16.30;;;;;;;-8.68;65.11;100240.06;106208;1251;61339;-70
2024/01/08 02:30:02;;;;;;;28.40;16.20;;;;;;;-8.71;64.99;100239.55;106151;1250;64524;-71
2024/01/08 02:32:29;;;;;;;30.10;14.80;;;;;;;-8.75;65.00;100236.52;106070;1251;61407;-70
2024/01/08 02:34:56;;;;;;;29.00;15.80;;;;;;;-8.76;65.13;100235.66;105917;1257;62586;-71
2024/01/08 02:37:24;;;;;;;28.10;15.80;;;;;;;-8.77;65.18;100235.67;106089;1250;61315;-71
2024/01/08 02:39:50;;;;;;;26.80;15.30;;;;;;;-8.76;65.25;100232.25;106370;1252;61241;-71
2024/01/08 02:42:18;;;;;;;32.60;16.20;;;;;;;-8.75;65.22;100235.15;106093;1250;64476;-72
2024/01/08 02:44:45;;;;;;;32.10;14.90;;;;;;;-8.75;65.28;100234.98;106025;1255;61383;-72
2024/01/08 02:47:12;;;;;;;29.30;14.80;;;;;;;-8.72;65.25;100231.70;106051;1251;65575;-71
2024/01/08 02:49:39;;;;;;;29.90;16.50;;;;;;;-8.71;65.30;100231.20;106076;1250;61326;-71
2024/01/08 02:52:06;;;;;;;27.30;14.40;;;;;;;-8.71;65.26;100236.83;106207;1250;61248;-71
2024/01/08 02:54:33;;;;;;;27.60;14.60;;;;;;;-8.71;65.13;100237.68;106141;1250;64640;-71
2024/01/08 02:57:00;;;;;;;27.50;15.60;;;;;;;-8.71;65.22;100235.98;105987;1251;61218;-70
2024/01/08 02:59:26;;;;;;;30.90;16.10;;;;;;;-8.71;65.14;100238.18;106076;1251;64040;-70
2024/01/08 03:01:53;;;;;;;26.90;16.40;;;;;;;-8.73;65.01;100237.52;106182;1249;61345;-72
2024/01/08 03:04:20;;;;;;;28.00;15.40;;;;;;;-8.75;65.08;100241.11;106004;1251;61325;-70
2024/01/08 03:06:47;;;;;;;28.60;15.50;;;;;;;-8.76;65.05;100238.91;106043;1251;64563;-71
2024/01/08 03:09:14;;;;;;;27.90;15.10;;;;;;;-8.78;65.02;100239.23;106159;1251;61248;-71
2024/01/08 03:11:40;;;;;;;24.90;14.10;;;;;;;-8.77;65.15;100239.25;106050;1253;64144;-72
2024/01/08 03:14:07;;;;;;;26.80;15.10;;;;;;;-8.77;65.10;100237.89;105949;1257;61256;-71
2024/01/08 03:16:34;;;;;;;28.20;15.30;;;;;;;-8.77;65.12;100238.40;106048;1250;61267;-70
2024/01/08 03:19:01;;;;;;;29.30;14.70;;;;;;;-8.75;65.18;100235.14;106102;1250;66233;-70
2024/01/08 03:21:29;;;;;;;25.10;14.90;;;;;;;-8.76;65.15;100237.02;106313;1250;61294;-71
2024/01/08 03:23:55;;;;;;;30.20;17.40;;;;;;;-8.79;65.23;100239.41;106083;1250;64787;-71
2024/01/08 03:26:22;;;;;;;29.20;16.70;;;;;;;-8.78;65.22;100241.80;105969;1251;61365;-71
2024/01/08 03:28:49;;;;;;;32.30;17.10;;;;;;;-8.77;65.28;100241.46;106108;1253;61330;-71
2024/01/08 03:31:16;;;;;;;28.20;15.90;;;;;;;-8.75;65.28;100246.08;106105;1254;66025;-70
2024/01/08 03:33:43;;;;;;;28.40;15.00;;;;;;;-8.75;65.23;100251.02;106144;1250;61234;-71
2024/01/08 03:36:11;;;;;;;25.50;15.70;;;;;;;-8.75;65.28;100254.77;106030;1251;63831;-72
2024/01/08 03:38:37;;;;;;;30.80;16.60;;;;;;;-8.75;65.38;100259.38;106034;1252;61241;-71
2024/01/08 03:41:04;;;;;;;30.10;15.40;;;;;;;-8.73;65.38;100258.69;106180;1251;61861;-71
2024/01/08 03:43:31;;;;;;;28.00;15.60;;;;;;;-8.75;65.33;100259.20;106191;1253;65829;-71
2024/01/08 03:45:58;;;;;;;32.50;16.80;;;;;;;-8.75;65.29;100265.69;106270;1253;62684;-71
2024/01/08 03:48:25;;;;;;;32.40;16.40;;;;;;;-8.77;65.16;100264.52;106109;1250;62971;-71
2024/01/08 03:50:52;;;;;;;32.10;15.60;;;;;;;-8.77;65.27;100264.85;106289;1251;61288;-70
2024/01/08 03:53:20;;;;;;;26.80;14.90;;;;;;;-8.78;65.10;100266.55;107347;1250;61344;-71
2024/01/08 03:55:47;;;;;;;30.20;15.40;;;;;;;-8.81;64.98;100271.16;106047;1251;65821;-71
2024/01/08 03:58:14;;;;;;;26.60;15.10;;;;;;;-8.85;64.99;100276.30;106148;1251;61359;-70
2024/01/08 04:00:41;;;;;;;25.70;15.20;;;;;;;-8.87;64.95;100276.48;105993;1251;63904;-70
2024/01/08 04:03:07;;;;;;;32.10;15.70;;;;;;;-8.89;64.90;100278.68;106037;1252;61327;-71
2024/01/08 04:05:34;;;;;;;31.80;15.80;;;;;;;-8.89;64.87;100281.92;106224;1250;61308;-69
2024/01/08 04:08:01;;;;;;;31.90;15.10;;;;;;;-8.93;64.73;100283.99;106074;1250;64620;-72
2024/01/08 04:10:28;;;;;;;30.00;15.30;;;;;;;-8.97;64.85;100291.33;106156;1251;61244;-70
2024/01/08 04:12:55;;;;;;;25.30;14.30;;;;;;;-8.99;64.83;100288.77;106084;1256;62680;-70
2024/01/08 04:15:22;;;;;;;31.10;15.50;;;;;;;-8.99;64.72;100288.94;106054;1251;61320;-69
2024/01/08 04:17:49;;;;;;;27.20;13.70;;;;;;;-9.01;64.70;100291.84;106142;1250;61420;-70
2024/01/08 04:20:16;;;;;;;29.90;15.60;;;;;;;-9.01;64.81;100296.11;105971;1255;66026;-70
2024/01/08 04:22:44;;;;;;;25.50;14.40;;;;;;;-9.02;64.73;100295.77;106161;1253;61244;-70
2024/01/08 04:25:10;;;;;;;26.20;15.00;;;;;;;-9.02;64.71;100297.82;106239;1249;62644;-70
2024/01/08 04:27:37;;;;;;;26.30;14.40;;;;;;;-9.03;64.66;100304.65;105984;1250;61236;-70
2024/01/08 04:30:07;;;;;;;27.50;14.60;;;;;;;-9.06;64.59;100305.34;106144;1253;61215;-70
2024/01/08 04:32:34;;;;;;;30.80;14.80;;;;;;;-9.06;64.65;100307.40;106170;1250;64688;-72
2024/01/08 04:35:02;;;;;;;24.40;13.40;;;;;;;-9.08;64.57;100309.93;106095;1250;61210;-72
2024/01/08 04:37:29;;;;;;;24.00;13.30;;;;;;;-9.10;64.44;100314.55;106012;1250;64035;-71
2024/01/08 04:39:56;;;;;;;30.80;14.80;;;;;;;-9.13;64.41;100317.27;106154;1256;61296;-71
2024/01/08 04:42:23;;;;;;;24.00;13.20;;;;;;;-9.16;64.32;100313.02;105866;1251;61401;-70
2024/01/08 04:44:49;;;;;;;29.50;14.00;;;;;;;-9.18;64.19;100311.14;106175;1253;64549;-70
2024/01/08 04:47:16;;;;;;;25.50;14.10;;;;;;;-9.20;64.27;100309.27;106147;1250;61353;-70
2024/01/08 04:49:43;;;;;;;27.20;14.30;;;;;;;-9.21;64.33;100306.88;106110;1250;62516;-70
2024/01/08 04:52:10;;;;;;;26.10;13.30;;;;;;;-9.22;64.22;100313.02;105898;1251;61345;-70
2024/01/08 04:54:37;;;;;;;26.00;13.40;;;;;;;-9.27;64.32;100310.96;106062;1250;61284;-72
2024/01/08 04:57:04;;;;;;;25.20;13.00;;;;;;;-9.28;64.42;100312.83;106078;1254;64761;-73
2024/01/08 04:59:30;;;;;;;24.30;12.60;;;;;;;-9.33;64.41;100312.85;106106;1250;61494;-72
2024/01/08 05:01:57;;;;;;;22.90;12.80;;;;;;;-9.37;64.40;100314.05;106025;1255;63834;-72
2024/01/08 05:04:25;;;;;;;24.10;12.70;;;;;;;-9.40;64.44;100315.91;106003;1251;61266;-69
2024/01/08 05:06:52;;;;;;;21.70;13.00;;;;;;;-9.41;64.38;100318.14;106202;1256;61199;-70
2024/01/08 05:09:18;;;;;;;24.90;12.90;;;;;;;-9.44;64.43;100313.71;106073;1253;65716;-69
2024/01/08 05:11:46;;;;;;;21.70;12.40;;;;;;;-9.47;64.46;100313.86;106295;1253;61240;-68
2024/01/08 05:14:14;;;;;;;23.60;12.50;;;;;;;-9.49;64.52;100313.00;106068;1250;64797;-70
2024/01/08 05:16:40;;;;;;;23.60;13.10;;;;;;;-9.48;64.63;100310.45;105905;1251;61303;-68
2024/01/08 05:19:07;;;;;;;24.70;12.60;;;;;;;-9.48;64.69;100315.73;106118;1250;61257;-67
2024/01/08 05:21:34;;;;;;;25.90;13.10;;;;;;;-9.48;64.72;100322.04;106099;1253;65830;-68
2024/01/08 05:24:01;;;;;;;25.00;13.40;;;;;;;-9.48;64.75;100322.38;106233;1251;61321;-69
2024/01/08 05:26:28;;;;;;;24.80;12.80;;;;;;;-9.47;64.83;100321.86;105958;1250;63951;-69
2024/01/08 05:28:56;;;;;;;23.00;12.30;;;;;;;-9.50;64.78;100320.68;106135;1251;61321;-69
2024/01/08 05:31:23;;;;;;;23.60;12.90;;;;;;;-9.53;64.81;100326.65;106098;1250;61246;-68
2024/01/08 05:33:50;;;;;;;21.90;12.50;;;;;;;-9.55;64.69;100334.98;106084;1250;64557;-69
2024/01/08 05:36:17;;;;;;;26.70;13.30;;;;;;;-9.58;64.69;100338.05;105991;1249;61292;-68
2024/01/08 05:38:44;;;;;;;24.60;12.60;;;;;;;-9.57;64.79;100342.81;106068;1253;62553;-72
2024/01/08 05:41:10;;;;;;;24.00;11.60;;;;;;;-9.57;64.82;100340.77;105979;1251;61423;-68
2024/01/08 05:43:37;;;;;;;23.40;11.10;;;;;;;-9.58;64.79;100348.27;105949;1250;61222;-70
2024/01/08 05:46:08;;;;;;;22.80;12.30;;;;;;;-9.61;64.77;100352.02;106069;1250;65914;-69
2024/01/08 05:48:39;;;;;;;23.70;11.60;;;;;;;-9.64;64.70;100355.09;105914;1250;61337;-68
2024/01/08 05:51:10;;;;;;;23.90;12.20;;;;;;;-9.65;64.71;100360.86;106061;1256;64723;-67
2024/01/08 05:53:37;;;;;;;23.70;12.00;;;;;;;-9.66;64.83;100367.69;105944;1250;61229;-68
2024/01/08 05:56:04;;;;;;;25.90;12.00;;;;;;;-9.65;64.78;100367.18;105839;1250;61228;-67
2024/01/08 05:58:35;;;;;;;24.90;11.50;;;;;;;-9.65;64.74;100372.11;105923;1252;65979;-67
2024/01/08 06:01:02;;;;;;;23.90;11.90;;;;;;;-9.67;64.66;100372.63;105971;1251;61331;-69
2024/01/08 06:03:29;;;;;;;19.20;11.00;;;;;;;-9.67;64.65;100374.33;106244;1256;63882;-67
2024/01/08 06:05:56;;;;;;;21.30;10.50;;;;;;;-9.64;64.69;100376.23;106022;1251;61223;-66
2024/01/08 06:08:24;;;;;;;25.50;11.40;;;;;;;-9.68;64.58;100384.55;105779;1250;61249;-66
2024/01/08 06:10:51;;;;;;;24.50;11.90;;;;;;;-9.71;64.66;100389.50;105959;1253;66033;-68
2024/01/08 06:13:18;;;;;;;21.70;10.40;;;;;;;-9.70;64.76;100395.11;105949;1250;61734;-75
2024/01/08 06:15:45;;;;;;;22.50;11.50;;;;;;;-9.66;64.78;100397.33;106009;1250;64034;-77
2024/01/08 06:18:12;;;;;;;20.20;10.20;;;;;;;-9.63;64.74;100394.29;106096;1251;61426;-75
2024/01/08 06:20:39;;;;;;;18.20;9.90;;;;;;;-9.60;64.80;100398.38;106239;1254;62868;-75
2024/01/08 06:23:06;;;;;;;19.70;10.00;;;;;;;-9.61;64.73;100397.54;106093;1254;64778;-75
2024/01/08 06:25:33;;;;;;;16.70;9.00;;;;;;;-9.62;64.64;100392.59;106096;1250;61382;-75
2024/01/08 06:28:00;;;;;;;20.80;10.70;;;;;;;-9.63;64.64;100389.69;106016;1251;63874;-79
2024/01/08 06:30:27;;;;;;;19.00;10.50;;;;;;;-9.67;64.58;100386.77;106262;1256;61278;-71
2024/01/08 06:32:53;;;;;;;19.80;10.40;;;;;;;-9.67;64.68;100388.80;106447;1253;59180;-73
2024/01/08 06:35:21;;;;;;;18.80;9.90;;;;;;;-9.66;64.81;100391.38;106332;1252;66030;-74
2024/01/08 06:37:47;;;;;;;18.00;8.60;;;;;;;-9.64;64.83;100392.76;106144;1250;61305;-70
2024/01/08 06:40:14;;;;;;;18.00;8.50;;;;;;;-9.63;64.84;100394.98;106030;1257;64063;-75
2024/01/08 06:42:44;;;;;;;17.10;9.00;;;;;;;-9.64;64.74;100397.70;105947;1250;61283;-72
2024/01/08 06:45:28;;;;;;;19.80;9.80;;;;;;;-9.64;64.80;100397.52;106034;1251;61311;-75
2024/01/08 06:47:54;;;;;;;17.50;9.40;;;;;;;-9.63;64.79;100403.33;106026;1254;65787;-74
2024/01/08 06:50:21;;;;;;;16.30;9.30;;;;;;;-9.62;64.87;100406.39;106626;1253;61266;-74
2024/01/08 06:52:49;;;;;;;18.00;8.90;;;;;;;-9.59;64.97;100409.63;106511;1251;63958;-73
2024/01/08 06:55:16;;;;;;;16.00;8.70;;;;;;;-9.57;64.84;100409.45;106038;1250;61253;-73
2024/01/08 06:57:43;;;;;;;18.90;9.10;;;;;;;-9.56;64.88;100409.11;106205;1251;61106;-74
2024/01/08 07:00:11;;;;;;;17.90;8.60;;;;;;;-9.55;65.04;100414.43;106156;1251;66039;-74
2024/01/08 07:02:38;;;;;;;16.30;8.30;;;;;;;-9.51;65.03;100413.23;106338;1253;61142;-69
2024/01/08 07:05:06;;;;;;;19.10;9.20;;;;;;;-9.46;65.17;100417.50;106020;1251;63819;-70
2024/01/08 07:07:35;;;;;;;16.90;8.30;;;;;;;-9.43;65.12;100419.05;105873;1250;61258;-68
2024/01/08 07:10:06;;;;;;;15.10;8.10;;;;;;;-9.42;65.06;100424.51;106157;1250;61106;-67
2024/01/08 07:12:34;;;;;;;17.40;7.70;;;;;;;-9.39;65.01;100423.48;105825;1257;65912;-70
2024/01/08 07:15:01;;;;;;;13.10;7.10;;;;;;;-9.37;65.07;100430.31;105949;1250;61360;-67
2024/01/08 07:17:28;;;;;;;14.20;7.40;;;;;;;-9.33;65.20;100431.35;106124;1253;63981;-67
2024/01/08 07:19:55;;;;;;;13.70;7.60;;;;;;;-9.31;65.12;100434.59;105933;1251;61621;-69
2024/01/08 07:22:22;;;;;;;14.60;8.10;;;;;;;-9.30;65.06;100436.80;106095;1249;61231;-68
2024/01/08 07:24:49;;;;;;;15.70;7.00;;;;;;;-9.31;64.98;100440.73;106074;1250;65795;-68
2024/01/08 07:27:16;;;;;;;14.80;7.90;;;;;;;-9.30;65.06;100443.29;105796;1251;61221;-67
2024/01/08 07:29:43;;;;;;;13.70;7.20;;;;;;;-9.28;65.02;100441.05;106245;1251;64924;-68
2024/01/08 07:32:10;;;;;;;14.00;7.10;;;;;;;-9.25;65.07;100437.51;105962;1253;61247;-68
2024/01/08 07:34:38;;;;;;;14.00;7.40;;;;;;;-9.24;65.06;100443.81;106166;1251;61209;-68
2024/01/08 07:37:05;;;;;;;13.60;6.70;;;;;;;-9.22;65.12;100445.70;106141;1253;65875;-69
2024/01/08 07:39:32;;;;;;;12.20;6.80;;;;;;;-9.20;65.08;100447.05;106098;1250;61243;-68
2024/01/08 07:41:58;;;;;;;11.40;6.50;;;;;;;-9.17;65.13;100449.10;106069;1253;62573;-69
2024/01/08 07:44:25;;;;;;;12.70;6.60;;;;;;;-9.14;65.15;100452.02;106079;1250;61251;-68
2024/01/08 07:46:53;;;;;;;10.80;6.50;;;;;;;-9.12;65.02;100448.10;106028;1251;61314;-68
2024/01/08 07:49:20;;;;;;;13.90;6.60;;;;;;;-9.09;65.04;100441.79;106077;1250;67713;-67
2024/01/08 07:51:47;;;;;;;13.10;6.30;;;;;;;-9.09;64.83;100448.09;106107;1250;61244;-68
2024/01/08 07:54:14;;;;;;;11.90;6.30;;;;;;;-9.11;64.77;100448.94;105899;1250;63791;-68
2024/01/08 07:56:43;;;;;;;12.20;6.50;;;;;;;-9.11;64.76;100452.70;106178;1251;61436;-68
2024/01/08 07:59:27;;;;;;;11.70;5.70;;;;;;;-9.11;64.72;100453.38;105880;1249;61314;-69
2024/01/08 08:01:54;;;;;;;11.60;6.20;;;;;;;-9.09;64.75;100453.89;106171;1251;64853;-68
2024/01/08 08:04:22;;;;;;;9.30;5.80;;;;;;;-9.10;64.56;100454.40;105958;1251;61145;-69
2024/01/08 08:06:49;;;;;;;11.20;6.30;;;;;;;-9.14;64.50;100455.60;106113;1250;64838;-67
2024/01/08 08:09:16;;;;;;;9.50;5.90;;;;;;;-9.16;64.44;100456.61;105962;1255;61325;-66
2024/01/08 08:11:43;;;;;;;14.90;6.90;;;;;;;-9.16;64.55;100457.64;106033;1250;61344;-70
2024/01/08 08:14:10;;;;;;;12.80;7.10;;;;;;;-9.10;64.68;100457.64;106026;1256;65999;-67
2024/01/08 08:16:37;;;;;;;11.80;5.70;;;;;;;-9.05;64.74;100460.73;106103;1250;61326;-71
2024/01/08 08:19:03;;;;;;;14.70;6.10;;;;;;;-9.02;64.66;100462.27;106036;1251;65826;-69
2024/01/08 08:21:30;;;;;;;10.70;5.80;;;;;;;-9.01;64.63;100461.92;106019;1251;61225;-68
2024/01/08 08:23:58;;;;;;;11.90;6.90;;;;;;;-8.98;64.64;100457.84;105994;1251;61269;-69
2024/01/08 08:26:25;;;;;;;13.00;6.50;;;;;;;-8.92;64.67;100462.27;106169;1253;66063;-67
2024/01/08 08:28:52;;;;;;;9.90;5.80;;;;;;;-8.91;64.47;100464.50;106075;1251;61355;-69
2024/01/08 08:31:19;;;;;;;11.10;5.90;;;;;;;-8.95;64.22;100460.92;106057;1250;64786;-68
2024/01/08 08:33:46;;;;;;;10.40;5.50;;;;;;;-8.97;64.24;100462.28;106099;1251;61144;-68
2024/01/08 08:36:15;;;;;;;10.80;5.60;;;;;;;-8.95;64.18;100464.16;105909;1251;61174;-68
2024/01/08 08:38:45;;;;;;;8.60;5.00;;;;;;;-8.93;64.03;100465.52;106065;1253;67622;-67
2024/01/08 08:41:12;;;;;;;10.30;5.70;;;;;;;-8.93;63.96;100464.84;106152;1250;61446;-68
2024/01/08 08:43:39;;;;;;;12.20;7.50;;;;;;;-8.90;64.03;100468.59;106094;1250;63909;-68
2024/01/08 08:46:06;;;;;;;12.40;6.80;;;;;;;-8.83;64.19;100468.61;106002;1251;61336;-68
2024/01/08 08:48:33;;;;;;;11.00;7.00;;;;;;;-8.78;64.13;100474.23;106003;1250;61257;-69
2024/01/08 08:51:00;;;;;;;12.70;7.70;;;;;;;-8.76;64.14;100471.00;106070;1250;66812;-68
2024/01/08 08:53:28;;;;;;;10.20;6.20;;;;;;;-8.73;64.08;100472.36;106007;1254;61216;-68
2024/01/08 08:55:55;;;;;;;13.80;7.40;;;;;;;-8.71;64.05;100473.04;105850;1254;62518;-69
2024/01/08 08:58:23;;;;;;;12.50;6.80;;;;;;;-8.71;63.96;100472.35;106100;1250;61324;-68
2024/01/08 09:00:51;;;;;;;13.20;7.20;;;;;;;-8.67;63.93;100470.83;106093;1250;61412;-69
2024/01/08 09:03:17;;;;;;;10.80;7.20;;;;;;;-8.64;63.72;100478.17;106100;1250;67771;-70
2024/01/08 09:05:45;;;;;;;10.30;6.40;;;;;;;-8.63;63.48;100473.21;106091;1253;61349;-68
2024/01/08 09:08:14;;;;;;;11.60;6.40;;;;;;;-8.62;63.40;100473.89;105986;1251;62457;-67
2024/01/08 09:10:41;;;;;;;11.50;6.40;;;;;;;-8.61;63.35;100473.71;106024;1251;61637;-68
2024/01/08 09:13:08;;;;;;;11.70;6.00;;;;;;;-8.58;63.33;100473.39;106086;1252;61140;-69
2024/01/08 09:15:34;;;;;;;13.20;7.90;;;;;;;-8.54;63.17;100474.23;106058;1250;67632;-67
2024/01/08 09:18:02;;;;;;;11.90;6.90;;;;;;;-8.51;63.02;100476.11;106005;1253;61359;-68
2024/01/08 09:20:30;;;;;;;12.00;6.10;;;;;;;-8.47;63.00;100479.02;106142;1255;64222;-69
2024/01/08 09:22:56;;;;;;;10.70;6.00;;;;;;;-8.44;62.94;100480.72;106117;1251;61227;-66
2024/01/08 09:25:23;;;;;;;13.10;6.20;;;;;;;-8.38;62.81;100479.70;105972;1251;61304;-69
2024/01/08 09:27:50;;;;;;;10.60;6.10;;;;;;;-8.35;62.68;100476.95;106158;1255;65984;-67
2024/01/08 09:30:19;;;;;;;10.50;5.70;;;;;;;-8.34;62.54;100476.92;106341;1250;61244;-69
2024/01/08 09:32:47;;;;;;;11.60;6.30;;;;;;;-8.33;62.38;100481.19;105966;1253;65494;-66
2024/01/08 09:35:15;;;;;;;10.00;6.30;;;;;;;-8.32;62.25;100476.40;106026;1253;61347;-65
2024/01/08 09:37:42;;;;;;;9.60;5.70;;;;;;;-8.29;62.29;100480.17;105939;1250;61331;-69
2024/01/08 09:40:10;;;;;;;13.80;7.30;;;;;;;-8.24;62.21;100478.61;106143;1250;75100;-67
2024/01/08 09:42:39;;;;;;;10.00;5.80;;;;;;;-8.20;62.16;100480.84;106065;1251;61350;-68
2024/01/08 09:45:10;;;;;;;13.00;5.60;;;;;;;-8.19;61.98;100484.26;106186;1249;65655;-67
2024/01/08 09:47:40;;;;;;;9.60;5.60;;;;;;;-8.16;62.06;100488.52;105816;1250;61254;-69
2024/01/08 09:50:09;;;;;;;11.40;7.60;;;;;;;-8.11;62.09;100483.38;106180;1251;61245;-68
2024/01/08 09:52:40;;;;;;;11.40;7.10;;;;;;;-8.06;62.08;100477.39;105979;1257;65852;-67
2024/01/08 09:55:10;;;;;;;12.60;7.80;;;;;;;-8.00;62.09;100475.68;106082;1250;61333;-67
2024/01/08 09:57:37;;;;;;;11.20;6.40;;;;;;;-7.99;61.85;100477.21;106109;1251;66419;-67
2024/01/08 10:00:05;;;;;;;12.20;5.70;;;;;;;-8.00;61.62;100474.98;106020;1250;61226;-67
2024/01/08 10:02:38;;;;;;;10.30;6.70;;;;;;;-8.04;61.52;100473.79;106104;1251;61337;-69
2024/01/08 10:05:06;;;;;;;13.00;6.90;;;;;;;-8.05;61.56;100469.02;106073;1250;67824;-68
2024/01/08 10:07:37;;;;;;;9.30;5.30;;;;;;;-8.06;61.49;100467.14;106186;1250;61311;-66
2024/01/08 10:10:04;;;;;;;10.00;5.10;;;;;;;-8.05;61.42;100464.40;106006;1250;65518;-67
2024/01/08 10:12:35;;;;;;;11.70;6.10;;;;;;;-8.05;61.42;100463.03;106133;1253;61280;-68
2024/01/08 10:15:04;;;;;;;12.30;7.10;;;;;;;-8.05;61.45;100464.06;106066;1250;61250;-68
2024/01/08 10:17:31;;;;;;;12.50;7.30;;;;;;;-8.03;61.58;100460.29;105984;1250;67796;-69
2024/01/08 10:20:07;;;;;;;12.20;7.80;;;;;;;-7.99;61.66;100456.70;105979;1250;61357;-69
2024/01/08 10:22:34;;;;;;;16.10;7.80;;;;;;;-7.98;61.62;100457.05;106224;1250;65459;-67
2024/01/08 10:25:02;;;;;;;13.70;7.50;;;;;;;-7.97;61.56;100452.59;106072;1253;61430;-71
2024/01/08 10:27:30;;;;;;;10.60;6.20;;;;;;;-7.95;61.45;100450.52;106025;1252;61284;-69
2024/01/08 10:29:57;;;;;;;12.60;7.70;;;;;;;-7.97;61.27;100450.71;106003;1256;68122;-70
2024/01/08 10:32:24;;;;;;;12.10;7.00;;;;;;;-7.98;61.19;100453.12;106013;1250;61323;-71
2024/01/08 10:34:51;;;;;;;13.60;7.40;;;;;;;-7.99;61.17;100447.14;105869;1256;65694;-71
2024/01/08 10:37:18;;;;;;;10.30;5.80;;;;;;;-8.00;61.12;100446.80;105902;1252;61345;-69
2024/01/08 10:39:47;;;;;;;11.30;6.90;;;;;;;-7.98;61.19;100449.52;105829;1251;61446;-68
2024/01/08 10:42:18;;;;;;;12.40;7.20;;;;;;;-7.93;61.21;100446.59;106046;1250;67881;-69
2024/01/08 10:44:45;;;;;;;10.00;6.30;;;;;;;-7.90;61.18;100448.82;106076;1254;61248;-66
2024/01/08 10:47:18;;;;;;;10.20;6.30;;;;;;;-7.90;61.28;100458.05;106086;1255;71791;-68
2024/01/08 10:49:49;;;;;;;12.60;6.80;;;;;;;-7.88;61.27;100459.73;105910;1256;61343;-66
2024/01/08 10:52:29;;;;;;;11.70;7.00;;;;;;;-7.86;61.20;100461.45;106043;1254;61240;-67
2024/01/08 10:55:01;;;;;;;12.90;6.60;;;;;;;-7.87;61.11;100459.05;105950;1250;64795;-68
2024/01/08 10:57:41;;;;;;;11.00;7.00;;;;;;;-7.87;61.18;100457.52;106094;1251;61340;-66
2024/01/08 11:00:09;;;;;;;10.60;6.70;;;;;;;-7.89;61.03;100456.16;105987;1250;65856;-68
2024/01/08 11:02:37;;;;;;;10.60;6.20;;;;;;;-7.89;60.98;100459.23;106010;1250;61326;-69
2024/01/08 11:05:13;;;;;;;12.90;7.70;;;;;;;-7.87;60.96;100457.69;106120;1251;61276;-67
2024/01/08 11:07:40;;;;;;;13.20;7.40;;;;;;;-7.87;60.91;100460.76;106171;1251;67675;-66
2024/01/08 11:10:09;;;;;;;12.40;7.80;;;;;;;-7.87;60.86;100457.17;106007;1250;61263;-68
2024/01/08 11:12:37;;;;;;;11.70;7.40;;;;;;;-7.87;60.80;100455.98;105771;1257;65558;-67
2024/01/08 11:15:05;;;;;;;11.30;7.10;;;;;;;-7.88;60.70;100455.81;106167;1251;61347;-66
2024/01/08 11:17:33;;;;;;;10.40;7.00;;;;;;;-7.88;60.73;100454.80;105811;1250;61211;-70
2024/01/08 11:20:05;;;;;;;11.30;6.80;;;;;;;-7.91;60.56;100457.18;106118;1250;66737;-69